sensor_id;sensor_type;location;lat;lon;timestamp;P1;durP1;ratioP1;P2;durP2;ratioP2
19951;SDS011;10137;49.406;19.484;2022-12-17T00:01:15;69.17;;;31.23;;
19951;SDS011;10137;49.406;19.484;2022-12-17T00:04:00;72.17;;;31.23;;
19951;SDS011;10137;49.406;19.484;2022-12-17T00:06:45;69.83;;;31.57;;
19951;SDS011;10137;49.406;19.484;2022-12-17T00:09:31;77.47;;;33.53;;
19951;SDS011;10137;49.406;19.484;2022-12-17T00:12:15;78.47;;;31.37;;
19951;SDS011;10137;49.406;19.484;2022-12-17T00:14:59;76.27;;;33.17;;
19951;SDS011;10137;49.406;19.484;2022-12-17T00:17:43;72.60;;;31.87;;
19951;SDS011;10137;49.406;19.484;2022-12-17T00:20:28;66.53;;;28.40;;
19951;SDS011;10137;49.406;19.484;2022-12-17T00:23:12;63.30;;;27.80;;
19951;SDS011;10137;49.406;19.484;2022-12-17T00:25:58;62.23;;;26.53;;
19951;SDS011;10137;49.406;19.484;2022-12-17T00:28:42;63.80;;;26.73;;
19951;SDS011;10137;49.406;19.484;2022-12-17T00:31:27;62.83;;;26.47;;
19951;SDS011;10137;49.406;19.484;2022-12-17T00:34:12;58.83;;;26.20;;
19951;SDS011;10137;49.406;19.484;2022-12-17T00:36:57;60.93;;;26.83;;
19951;SDS011;10137;49.406;19.484;2022-12-17T00:39:40;61.57;;;26.87;;
19951;SDS011;10137;49.406;19.484;2022-12-17T00:42:26;59.40;;;27.17;;
19951;SDS011;10137;49.406;19.484;2022-12-17T00:45:11;62.93;;;26.70;;
19951;SDS011;10137;49.406;19.484;2022-12-17T00:47:56;61.27;;;25.47;;
19951;SDS011;10137;49.406;19.484;2022-12-17T00:50:40;55.13;;;24.73;;
19951;SDS011;10137;49.406;19.484;2022-12-17T00:53:25;58.50;;;26.47;;
19951;SDS011;10137;49.406;19.484;2022-12-17T00:56:09;57.37;;;25.87;;
19951;SDS011;10137;49.406;19.484;2022-12-17T00:58:55;55.07;;;24.87;;
19951;SDS011;10137;49.406;19.484;2022-12-17T01:01:40;58.93;;;25.73;;
19951;SDS011;10137;49.406;19.484;2022-12-17T01:04:24;50.80;;;24.20;;
19951;SDS011;10137;49.406;19.484;2022-12-17T01:07:08;57.60;;;23.97;;
19951;SDS011;10137;49.406;19.484;2022-12-17T01:10:05;62.63;;;25.07;;
19951;SDS011;10137;49.406;19.484;2022-12-17T01:12:49;58.27;;;25.23;;
19951;SDS011;10137;49.406;19.484;2022-12-17T01:15:34;57.17;;;24.37;;
19951;SDS011;10137;49.406;19.484;2022-12-17T01:18:19;55.53;;;26.30;;
19951;SDS011;10137;49.406;19.484;2022-12-17T01:21:04;59.93;;;25.50;;
19951;SDS011;10137;49.406;19.484;2022-12-17T01:23:48;65.53;;;27.23;;
19951;SDS011;10137;49.406;19.484;2022-12-17T01:26:33;54.43;;;25.53;;
19951;SDS011;10137;49.406;19.484;2022-12-17T01:29:17;60.50;;;25.23;;
19951;SDS011;10137;49.406;19.484;2022-12-17T01:32:03;92.67;;;34.03;;
19951;SDS011;10137;49.406;19.484;2022-12-17T01:34:48;68.37;;;29.03;;
19951;SDS011;10137;49.406;19.484;2022-12-17T01:37:31;73.87;;;29.53;;
19951;SDS011;10137;49.406;19.484;2022-12-17T01:40:16;64.43;;;26.93;;
19951;SDS011;10137;49.406;19.484;2022-12-17T01:43:00;65.53;;;28.50;;
19951;SDS011;10137;49.406;19.484;2022-12-17T01:45:45;57.50;;;25.63;;
19951;SDS011;10137;49.406;19.484;2022-12-17T01:48:35;54.50;;;24.93;;
19951;SDS011;10137;49.406;19.484;2022-12-17T01:51:24;60.23;;;26.67;;
19951;SDS011;10137;49.406;19.484;2022-12-17T01:54:10;62.63;;;27.03;;
19951;SDS011;10137;49.406;19.484;2022-12-17T01:56:56;64.83;;;27.53;;
19951;SDS011;10137;49.406;19.484;2022-12-17T01:59:41;70.23;;;28.10;;
19951;SDS011;10137;49.406;19.484;2022-12-17T02:02:30;66.80;;;28.33;;
19951;SDS011;10137;49.406;19.484;2022-12-17T02:05:16;65.93;;;27.53;;
19951;SDS011;10137;49.406;19.484;2022-12-17T02:08:04;62.03;;;26.73;;
19951;SDS011;10137;49.406;19.484;2022-12-17T02:10:59;63.30;;;27.30;;
19951;SDS011;10137;49.406;19.484;2022-12-17T02:13:56;66.87;;;28.37;;
19951;SDS011;10137;49.406;19.484;2022-12-17T02:16:51;63.93;;;26.43;;
19951;SDS011;10137;49.406;19.484;2022-12-17T02:19:43;58.70;;;26.53;;
19951;SDS011;10137;49.406;19.484;2022-12-17T02:22:37;63.73;;;26.83;;
19951;SDS011;10137;49.406;19.484;2022-12-17T02:25:31;55.33;;;24.43;;
19951;SDS011;10137;49.406;19.484;2022-12-17T02:28:23;55.63;;;23.97;;
19951;SDS011;10137;49.406;19.484;2022-12-17T02:31:09;58.10;;;24.87;;
19951;SDS011;10137;49.406;19.484;2022-12-17T02:33:55;59.37;;;24.47;;
19951;SDS011;10137;49.406;19.484;2022-12-17T02:36:40;57.93;;;23.70;;
19951;SDS011;10137;49.406;19.484;2022-12-17T02:39:25;53.10;;;23.70;;
19951;SDS011;10137;49.406;19.484;2022-12-17T02:42:09;58.47;;;25.67;;
19951;SDS011;10137;49.406;19.484;2022-12-17T02:44:55;61.17;;;27.27;;
19951;SDS011;10137;49.406;19.484;2022-12-17T02:47:41;65.67;;;29.33;;
19951;SDS011;10137;49.406;19.484;2022-12-17T02:50:27;48.60;;;23.13;;
19951;SDS011;10137;49.406;19.484;2022-12-17T02:53:11;57.97;;;24.80;;
19951;SDS011;10137;49.406;19.484;2022-12-17T02:55:56;54.00;;;24.53;;
19951;SDS011;10137;49.406;19.484;2022-12-17T02:58:40;82.50;;;32.20;;
19951;SDS011;10137;49.406;19.484;2022-12-17T03:01:26;54.47;;;23.87;;
19951;SDS011;10137;49.406;19.484;2022-12-17T03:04:10;46.23;;;21.63;;
19951;SDS011;10137;49.406;19.484;2022-12-17T03:06:55;49.00;;;21.67;;
19951;SDS011;10137;49.406;19.484;2022-12-17T03:09:40;72.23;;;32.33;;
19951;SDS011;10137;49.406;19.484;2022-12-17T03:12:25;64.57;;;29.77;;
19951;SDS011;10137;49.406;19.484;2022-12-17T03:15:09;46.10;;;21.63;;
19951;SDS011;10137;49.406;19.484;2022-12-17T03:17:55;51.37;;;23.77;;
19951;SDS011;10137;49.406;19.484;2022-12-17T03:20:39;48.30;;;22.87;;
19951;SDS011;10137;49.406;19.484;2022-12-17T03:23:24;45.63;;;23.07;;
19951;SDS011;10137;49.406;19.484;2022-12-17T03:26:20;45.27;;;21.07;;
19951;SDS011;10137;49.406;19.484;2022-12-17T03:29:04;47.63;;;23.63;;
19951;SDS011;10137;49.406;19.484;2022-12-17T03:31:51;48.20;;;21.47;;
19951;SDS011;10137;49.406;19.484;2022-12-17T03:34:37;45.33;;;21.83;;
19951;SDS011;10137;49.406;19.484;2022-12-17T03:37:21;41.63;;;20.03;;
19951;SDS011;10137;49.406;19.484;2022-12-17T03:40:06;54.23;;;22.93;;
19951;SDS011;10137;49.406;19.484;2022-12-17T03:42:51;53.30;;;25.67;;
19951;SDS011;10137;49.406;19.484;2022-12-17T03:45:35;52.43;;;25.17;;
19951;SDS011;10137;49.406;19.484;2022-12-17T03:48:31;58.67;;;27.53;;
19951;SDS011;10137;49.406;19.484;2022-12-17T03:51:32;45.70;;;21.13;;
19951;SDS011;10137;49.406;19.484;2022-12-17T03:54:16;46.63;;;21.60;;
19951;SDS011;10137;49.406;19.484;2022-12-17T03:57:01;49.57;;;25.30;;
19951;SDS011;10137;49.406;19.484;2022-12-17T03:59:45;51.77;;;24.20;;
19951;SDS011;10137;49.406;19.484;2022-12-17T04:02:29;54.43;;;25.13;;
19951;SDS011;10137;49.406;19.484;2022-12-17T04:05:13;46.83;;;21.67;;
19951;SDS011;10137;49.406;19.484;2022-12-17T04:07:59;50.70;;;21.87;;
19951;SDS011;10137;49.406;19.484;2022-12-17T04:10:49;45.40;;;20.27;;
19951;SDS011;10137;49.406;19.484;2022-12-17T04:13:33;44.37;;;20.10;;
19951;SDS011;10137;49.406;19.484;2022-12-17T04:16:17;46.80;;;21.07;;
19951;SDS011;10137;49.406;19.484;2022-12-17T04:19:02;45.50;;;20.80;;
19951;SDS011;10137;49.406;19.484;2022-12-17T04:21:46;43.73;;;20.10;;
19951;SDS011;10137;49.406;19.484;2022-12-17T04:24:32;41.87;;;19.73;;
19951;SDS011;10137;49.406;19.484;2022-12-17T04:27:16;43.23;;;19.67;;
19951;SDS011;10137;49.406;19.484;2022-12-17T04:30:01;50.50;;;20.70;;
19951;SDS011;10137;49.406;19.484;2022-12-17T04:32:45;50.57;;;22.07;;
19951;SDS011;10137;49.406;19.484;2022-12-17T04:35:30;53.93;;;22.03;;
19951;SDS011;10137;49.406;19.484;2022-12-17T04:38:14;42.33;;;20.50;;
19951;SDS011;10137;49.406;19.484;2022-12-17T04:41:00;52.10;;;22.43;;
19951;SDS011;10137;49.406;19.484;2022-12-17T04:43:44;45.80;;;19.77;;
19951;SDS011;10137;49.406;19.484;2022-12-17T04:46:28;52.03;;;20.70;;
19951;SDS011;10137;49.406;19.484;2022-12-17T04:49:13;50.50;;;22.60;;
19951;SDS011;10137;49.406;19.484;2022-12-17T04:51:57;46.73;;;21.93;;
19951;SDS011;10137;49.406;19.484;2022-12-17T04:54:42;53.33;;;22.53;;
19951;SDS011;10137;49.406;19.484;2022-12-17T04:57:28;53.57;;;23.60;;
19951;SDS011;10137;49.406;19.484;2022-12-17T05:00:13;50.77;;;22.43;;
19951;SDS011;10137;49.406;19.484;2022-12-17T05:03:02;53.83;;;23.90;;
19951;SDS011;10137;49.406;19.484;2022-12-17T05:05:47;47.37;;;21.80;;
19951;SDS011;10137;49.406;19.484;2022-12-17T05:08:32;52.50;;;23.47;;
19951;SDS011;10137;49.406;19.484;2022-12-17T05:11:16;58.27;;;23.70;;
19951;SDS011;10137;49.406;19.484;2022-12-17T05:14:03;50.17;;;22.80;;
19951;SDS011;10137;49.406;19.484;2022-12-17T05:16:47;50.67;;;22.80;;
19951;SDS011;10137;49.406;19.484;2022-12-17T05:19:39;52.20;;;22.80;;
19951;SDS011;10137;49.406;19.484;2022-12-17T05:22:24;46.63;;;20.73;;
19951;SDS011;10137;49.406;19.484;2022-12-17T05:25:08;49.00;;;21.23;;
19951;SDS011;10137;49.406;19.484;2022-12-17T05:27:52;55.00;;;22.33;;
19951;SDS011;10137;49.406;19.484;2022-12-17T05:30:38;63.23;;;26.63;;
19951;SDS011;10137;49.406;19.484;2022-12-17T05:33:22;56.73;;;25.50;;
19951;SDS011;10137;49.406;19.484;2022-12-17T05:36:06;56.17;;;25.53;;
19951;SDS011;10137;49.406;19.484;2022-12-17T05:38:51;49.13;;;22.50;;
19951;SDS011;10137;49.406;19.484;2022-12-17T05:41:35;55.07;;;23.10;;
19951;SDS011;10137;49.406;19.484;2022-12-17T05:44:20;55.40;;;24.63;;
19951;SDS011;10137;49.406;19.484;2022-12-17T05:47:06;75.03;;;32.30;;
19951;SDS011;10137;49.406;19.484;2022-12-17T05:49:50;59.37;;;26.20;;
19951;SDS011;10137;49.406;19.484;2022-12-17T05:52:34;66.90;;;26.70;;
19951;SDS011;10137;49.406;19.484;2022-12-17T05:55:18;44.97;;;20.37;;
19951;SDS011;10137;49.406;19.484;2022-12-17T05:58:03;44.07;;;21.60;;
19951;SDS011;10137;49.406;19.484;2022-12-17T06:00:49;39.90;;;19.33;;
19951;SDS011;10137;49.406;19.484;2022-12-17T06:03:38;42.97;;;20.37;;
19951;SDS011;10137;49.406;19.484;2022-12-17T06:06:23;41.60;;;19.63;;
19951;SDS011;10137;49.406;19.484;2022-12-17T06:09:07;45.37;;;21.17;;
19951;SDS011;10137;49.406;19.484;2022-12-17T06:11:51;53.83;;;25.90;;
19951;SDS011;10137;49.406;19.484;2022-12-17T06:14:36;46.43;;;22.60;;
19951;SDS011;10137;49.406;19.484;2022-12-17T06:17:20;36.60;;;17.40;;
19951;SDS011;10137;49.406;19.484;2022-12-17T06:20:07;40.40;;;18.30;;
19951;SDS011;10137;49.406;19.484;2022-12-17T06:22:57;36.63;;;18.53;;
19951;SDS011;10137;49.406;19.484;2022-12-17T06:25:42;42.90;;;20.80;;
19951;SDS011;10137;49.406;19.484;2022-12-17T06:28:27;46.63;;;22.47;;
19951;SDS011;10137;49.406;19.484;2022-12-17T06:31:11;53.57;;;23.13;;
19951;SDS011;10137;49.406;19.484;2022-12-17T06:33:56;41.17;;;19.03;;
19951;SDS011;10137;49.406;19.484;2022-12-17T06:36:42;39.87;;;18.30;;
19951;SDS011;10137;49.406;19.484;2022-12-17T06:39:32;44.27;;;19.03;;
19951;SDS011;10137;49.406;19.484;2022-12-17T06:42:16;40.57;;;18.20;;
19951;SDS011;10137;49.406;19.484;2022-12-17T06:45:01;44.57;;;21.53;;
19951;SDS011;10137;49.406;19.484;2022-12-17T06:47:46;53.97;;;26.03;;
19951;SDS011;10137;49.406;19.484;2022-12-17T06:50:30;36.37;;;18.30;;
19951;SDS011;10137;49.406;19.484;2022-12-17T06:53:16;48.00;;;22.37;;
19951;SDS011;10137;49.406;19.484;2022-12-17T06:56:00;43.10;;;19.77;;
19951;SDS011;10137;49.406;19.484;2022-12-17T06:58:45;42.30;;;19.23;;
19951;SDS011;10137;49.406;19.484;2022-12-17T07:01:31;47.40;;;19.90;;
19951;SDS011;10137;49.406;19.484;2022-12-17T07:04:15;47.93;;;21.03;;
19951;SDS011;10137;49.406;19.484;2022-12-17T07:06:59;41.30;;;18.17;;
19951;SDS011;10137;49.406;19.484;2022-12-17T07:09:45;42.90;;;19.63;;
19951;SDS011;10137;49.406;19.484;2022-12-17T07:12:30;44.63;;;19.27;;
19951;SDS011;10137;49.406;19.484;2022-12-17T07:15:22;42.53;;;19.23;;
19951;SDS011;10137;49.406;19.484;2022-12-17T07:18:03;45.83;;;20.63;;
19951;SDS011;10137;49.406;19.484;2022-12-17T07:20:48;40.67;;;20.03;;
19951;SDS011;10137;49.406;19.484;2022-12-17T07:23:35;40.80;;;18.73;;
19951;SDS011;10137;49.406;19.484;2022-12-17T07:26:21;40.27;;;18.13;;
19951;SDS011;10137;49.406;19.484;2022-12-17T07:29:05;46.30;;;20.13;;
19951;SDS011;10137;49.406;19.484;2022-12-17T07:31:49;53.63;;;22.63;;
19951;SDS011;10137;49.406;19.484;2022-12-17T07:34:34;60.30;;;24.77;;
19951;SDS011;10137;49.406;19.484;2022-12-17T07:37:18;53.03;;;23.03;;
19951;SDS011;10137;49.406;19.484;2022-12-17T07:40:03;60.40;;;24.87;;
19951;SDS011;10137;49.406;19.484;2022-12-17T07:42:50;64.93;;;26.57;;
19951;SDS011;10137;49.406;19.484;2022-12-17T07:45:36;51.53;;;22.17;;
19951;SDS011;10137;49.406;19.484;2022-12-17T07:48:21;48.47;;;20.70;;
19951;SDS011;10137;49.406;19.484;2022-12-17T07:51:05;47.23;;;21.03;;
19951;SDS011;10137;49.406;19.484;2022-12-17T07:53:49;73.40;;;28.63;;
19951;SDS011;10137;49.406;19.484;2022-12-17T07:56:34;48.27;;;21.30;;
19951;SDS011;10137;49.406;19.484;2022-12-17T07:59:20;45.33;;;19.87;;
19951;SDS011;10137;49.406;19.484;2022-12-17T08:02:04;64.27;;;24.50;;
19951;SDS011;10137;49.406;19.484;2022-12-17T08:04:49;58.83;;;24.10;;
19951;SDS011;10137;49.406;19.484;2022-12-17T08:07:34;49.47;;;21.50;;
19951;SDS011;10137;49.406;19.484;2022-12-17T08:10:18;43.93;;;19.70;;
19951;SDS011;10137;49.406;19.484;2022-12-17T08:13:04;42.50;;;20.63;;
19951;SDS011;10137;49.406;19.484;2022-12-17T08:15:52;47.27;;;20.00;;
19951;SDS011;10137;49.406;19.484;2022-12-17T08:18:37;42.50;;;18.70;;
19951;SDS011;10137;49.406;19.484;2022-12-17T08:21:21;39.93;;;19.30;;
19951;SDS011;10137;49.406;19.484;2022-12-17T08:24:05;51.00;;;23.60;;
19951;SDS011;10137;49.406;19.484;2022-12-17T08:26:50;71.93;;;28.47;;
19951;SDS011;10137;49.406;19.484;2022-12-17T08:29:34;67.20;;;27.93;;
19951;SDS011;10137;49.406;19.484;2022-12-17T08:32:20;57.67;;;25.43;;
19951;SDS011;10137;49.406;19.484;2022-12-17T08:35:05;54.70;;;23.10;;
19951;SDS011;10137;49.406;19.484;2022-12-17T08:37:51;76.30;;;32.40;;
19951;SDS011;10137;49.406;19.484;2022-12-17T08:40:35;49.50;;;22.20;;
19951;SDS011;10137;49.406;19.484;2022-12-17T08:43:19;44.23;;;20.20;;
19951;SDS011;10137;49.406;19.484;2022-12-17T08:46:04;45.63;;;22.00;;
19951;SDS011;10137;49.406;19.484;2022-12-17T08:48:50;51.67;;;21.77;;
19951;SDS011;10137;49.406;19.484;2022-12-17T08:51:39;72.10;;;28.27;;
19951;SDS011;10137;49.406;19.484;2022-12-17T08:54:24;56.97;;;24.53;;
19951;SDS011;10137;49.406;19.484;2022-12-17T08:57:08;55.03;;;23.23;;
19951;SDS011;10137;49.406;19.484;2022-12-17T08:59:52;114.23;;;43.47;;
19951;SDS011;10137;49.406;19.484;2022-12-17T09:02:36;95.23;;;39.30;;
19951;SDS011;10137;49.406;19.484;2022-12-17T09:05:22;100.93;;;39.77;;
19951;SDS011;10137;49.406;19.484;2022-12-17T09:08:06;84.97;;;35.13;;
19951;SDS011;10137;49.406;19.484;2022-12-17T09:10:51;79.90;;;32.17;;
19951;SDS011;10137;49.406;19.484;2022-12-17T09:13:35;74.10;;;32.00;;
19951;SDS011;10137;49.406;19.484;2022-12-17T09:16:20;65.57;;;27.40;;
19951;SDS011;10137;49.406;19.484;2022-12-17T09:19:05;56.83;;;24.00;;
19951;SDS011;10137;49.406;19.484;2022-12-17T09:21:53;58.03;;;25.10;;
19951;SDS011;10137;49.406;19.484;2022-12-17T09:24:37;65.33;;;28.47;;
19951;SDS011;10137;49.406;19.484;2022-12-17T09:27:24;69.20;;;30.17;;
19951;SDS011;10137;49.406;19.484;2022-12-17T09:30:09;78.40;;;32.57;;
19951;SDS011;10137;49.406;19.484;2022-12-17T09:32:51;77.67;;;33.77;;
19951;SDS011;10137;49.406;19.484;2022-12-17T09:35:35;73.10;;;29.20;;
19951;SDS011;10137;49.406;19.484;2022-12-17T09:38:21;79.17;;;33.47;;
19951;SDS011;10137;49.406;19.484;2022-12-17T09:41:06;88.57;;;39.57;;
19951;SDS011;10137;49.406;19.484;2022-12-17T09:44:03;73.83;;;28.17;;
19951;SDS011;10137;49.406;19.484;2022-12-17T09:46:53;67.33;;;28.80;;
19951;SDS011;10137;49.406;19.484;2022-12-17T09:49:45;63.37;;;28.57;;
19951;SDS011;10137;49.406;19.484;2022-12-17T09:52:30;68.50;;;29.63;;
19951;SDS011;10137;49.406;19.484;2022-12-17T09:55:20;64.87;;;27.57;;
19951;SDS011;10137;49.406;19.484;2022-12-17T09:58:13;66.77;;;29.23;;
19951;SDS011;10137;49.406;19.484;2022-12-17T10:01:01;77.83;;;30.97;;
19951;SDS011;10137;49.406;19.484;2022-12-17T10:03:47;83.00;;;32.50;;
19951;SDS011;10137;49.406;19.484;2022-12-17T10:06:32;80.70;;;33.17;;
19951;SDS011;10137;49.406;19.484;2022-12-17T10:09:18;76.53;;;30.80;;
19951;SDS011;10137;49.406;19.484;2022-12-17T10:12:11;84.10;;;32.43;;
19951;SDS011;10137;49.406;19.484;2022-12-17T10:14:57;82.57;;;34.43;;
19951;SDS011;10137;49.406;19.484;2022-12-17T10:17:41;85.10;;;33.47;;
19951;SDS011;10137;49.406;19.484;2022-12-17T10:20:28;89.10;;;32.23;;
19951;SDS011;10137;49.406;19.484;2022-12-17T10:23:22;70.53;;;29.47;;
19951;SDS011;10137;49.406;19.484;2022-12-17T10:26:15;85.27;;;31.23;;
19951;SDS011;10137;49.406;19.484;2022-12-17T10:29:03;90.47;;;35.37;;
19951;SDS011;10137;49.406;19.484;2022-12-17T10:31:48;75.37;;;32.43;;
19951;SDS011;10137;49.406;19.484;2022-12-17T10:34:34;78.13;;;29.67;;
19951;SDS011;10137;49.406;19.484;2022-12-17T10:37:20;87.53;;;32.70;;
19951;SDS011;10137;49.406;19.484;2022-12-17T10:40:14;77.27;;;31.97;;
19951;SDS011;10137;49.406;19.484;2022-12-17T10:43:03;76.63;;;29.83;;
19951;SDS011;10137;49.406;19.484;2022-12-17T10:46:04;78.90;;;28.77;;
19951;SDS011;10137;49.406;19.484;2022-12-17T10:48:48;72.20;;;27.47;;
19951;SDS011;10137;49.406;19.484;2022-12-17T10:51:33;70.43;;;29.37;;
19951;SDS011;10137;49.406;19.484;2022-12-17T10:54:21;65.80;;;27.47;;
19951;SDS011;10137;49.406;19.484;2022-12-17T10:57:22;68.57;;;28.40;;
19951;SDS011;10137;49.406;19.484;2022-12-17T11:00:13;73.93;;;27.63;;
19951;SDS011;10137;49.406;19.484;2022-12-17T11:03:22;74.67;;;29.23;;
19951;SDS011;10137;49.406;19.484;2022-12-17T11:06:08;85.30;;;36.03;;
19951;SDS011;10137;49.406;19.484;2022-12-17T11:08:54;79.97;;;35.77;;
19951;SDS011;10137;49.406;19.484;2022-12-17T11:11:39;69.83;;;30.93;;
19951;SDS011;10137;49.406;19.484;2022-12-17T11:14:24;53.40;;;25.03;;
19951;SDS011;10137;49.406;19.484;2022-12-17T11:17:10;66.77;;;27.33;;
19951;SDS011;10137;49.406;19.484;2022-12-17T11:20:01;56.57;;;24.47;;
19951;SDS011;10137;49.406;19.484;2022-12-17T11:22:51;71.17;;;28.90;;
19951;SDS011;10137;49.406;19.484;2022-12-17T11:25:46;77.73;;;32.20;;
19951;SDS011;10137;49.406;19.484;2022-12-17T11:28:36;76.70;;;32.90;;
19951;SDS011;10137;49.406;19.484;2022-12-17T11:31:34;64.50;;;28.30;;
19951;SDS011;10137;49.406;19.484;2022-12-17T11:34:43;72.07;;;31.80;;
19951;SDS011;10137;49.406;19.484;2022-12-17T11:37:43;65.23;;;27.83;;
19951;SDS011;10137;49.406;19.484;2022-12-17T11:40:40;56.87;;;24.27;;
19951;SDS011;10137;49.406;19.484;2022-12-17T11:43:27;56.63;;;24.70;;
19951;SDS011;10137;49.406;19.484;2022-12-17T11:46:20;57.43;;;24.47;;
19951;SDS011;10137;49.406;19.484;2022-12-17T11:49:13;54.53;;;23.83;;
19951;SDS011;10137;49.406;19.484;2022-12-17T11:52:07;58.77;;;25.37;;
19951;SDS011;10137;49.406;19.484;2022-12-17T11:54:58;56.87;;;23.27;;
19951;SDS011;10137;49.406;19.484;2022-12-17T11:57:51;55.20;;;22.80;;
19951;SDS011;10137;49.406;19.484;2022-12-17T12:00:45;37.73;;;18.50;;
19951;SDS011;10137;49.406;19.484;2022-12-17T12:03:38;38.33;;;18.17;;
19951;SDS011;10137;49.406;19.484;2022-12-17T12:06:36;46.23;;;22.67;;
19951;SDS011;10137;49.406;19.484;2022-12-17T12:09:32;53.70;;;22.80;;
19951;SDS011;10137;49.406;19.484;2022-12-17T12:12:25;54.40;;;24.70;;
19951;SDS011;10137;49.406;19.484;2022-12-17T12:15:20;55.73;;;26.87;;
19951;SDS011;10137;49.406;19.484;2022-12-17T12:18:12;54.03;;;24.37;;
19951;SDS011;10137;49.406;19.484;2022-12-17T12:21:17;55.50;;;23.87;;
19951;SDS011;10137;49.406;19.484;2022-12-17T12:24:27;56.47;;;25.00;;
19951;SDS011;10137;49.406;19.484;2022-12-17T12:27:33;62.80;;;27.13;;
19951;SDS011;10137;49.406;19.484;2022-12-17T12:30:23;87.47;;;32.33;;
19951;SDS011;10137;49.406;19.484;2022-12-17T12:33:19;126.30;;;42.83;;
19951;SDS011;10137;49.406;19.484;2022-12-17T12:36:11;64.13;;;27.17;;
19951;SDS011;10137;49.406;19.484;2022-12-17T12:38:59;61.30;;;26.47;;
19951;SDS011;10137;49.406;19.484;2022-12-17T12:41:46;206.67;;;69.50;;
19951;SDS011;10137;49.406;19.484;2022-12-17T12:44:39;79.93;;;33.83;;
19951;SDS011;10137;49.406;19.484;2022-12-17T12:47:34;69.80;;;30.37;;
19951;SDS011;10137;49.406;19.484;2022-12-17T12:50:26;65.63;;;29.40;;
19951;SDS011;10137;49.406;19.484;2022-12-17T12:53:16;69.13;;;28.97;;
19951;SDS011;10137;49.406;19.484;2022-12-17T12:56:01;64.77;;;27.97;;
19951;SDS011;10137;49.406;19.484;2022-12-17T12:58:46;63.47;;;29.87;;
19951;SDS011;10137;49.406;19.484;2022-12-17T13:01:33;71.97;;;27.93;;
19951;SDS011;10137;49.406;19.484;2022-12-17T13:04:30;67.57;;;29.20;;
19951;SDS011;10137;49.406;19.484;2022-12-17T13:07:22;62.07;;;29.73;;
19951;SDS011;10137;49.406;19.484;2022-12-17T13:09:52;58.70;;;26.63;;
19951;SDS011;10137;49.406;19.484;2022-12-17T13:12:25;60.70;;;27.03;;
19951;SDS011;10137;49.406;19.484;2022-12-17T13:15:12;64.53;;;27.43;;
19951;SDS011;10137;49.406;19.484;2022-12-17T13:17:54;61.80;;;27.53;;
19951;SDS011;10137;49.406;19.484;2022-12-17T13:20:26;56.53;;;24.07;;
19951;SDS011;10137;49.406;19.484;2022-12-17T13:23:12;60.47;;;25.63;;
19951;SDS011;10137;49.406;19.484;2022-12-17T13:25:42;65.07;;;27.73;;
19951;SDS011;10137;49.406;19.484;2022-12-17T13:31:01;58.80;;;25.47;;
19951;SDS011;10137;49.406;19.484;2022-12-17T13:33:31;68.60;;;27.50;;
19951;SDS011;10137;49.406;19.484;2022-12-17T13:36:07;58.37;;;24.73;;
19951;SDS011;10137;49.406;19.484;2022-12-17T13:38:44;72.70;;;31.63;;
19951;SDS011;10137;49.406;19.484;2022-12-17T13:41:17;74.20;;;31.23;;
19951;SDS011;10137;49.406;19.484;2022-12-17T13:43:45;67.37;;;28.20;;
19951;SDS011;10137;49.406;19.484;2022-12-17T13:46:16;98.47;;;37.40;;
19951;SDS011;10137;49.406;19.484;2022-12-17T13:48:52;89.83;;;35.07;;
19951;SDS011;10137;49.406;19.484;2022-12-17T13:51:23;90.83;;;37.87;;
19951;SDS011;10137;49.406;19.484;2022-12-17T13:53:53;76.43;;;32.70;;
19951;SDS011;10137;49.406;19.484;2022-12-17T13:56:22;68.53;;;28.60;;
19951;SDS011;10137;49.406;19.484;2022-12-17T13:58:51;75.83;;;31.07;;
19951;SDS011;10137;49.406;19.484;2022-12-17T14:01:19;70.87;;;27.73;;
19951;SDS011;10137;49.406;19.484;2022-12-17T14:03:50;81.20;;;32.27;;
19951;SDS011;10137;49.406;19.484;2022-12-17T14:06:20;77.53;;;30.97;;
19951;SDS011;10137;49.406;19.484;2022-12-17T14:08:49;80.33;;;32.87;;
19951;SDS011;10137;49.406;19.484;2022-12-17T14:11:18;73.47;;;30.50;;
19951;SDS011;10137;49.406;19.484;2022-12-17T14:14:06;90.97;;;35.03;;
19951;SDS011;10137;49.406;19.484;2022-12-17T14:16:39;88.40;;;35.37;;
19951;SDS011;10137;49.406;19.484;2022-12-17T14:19:09;81.10;;;33.83;;
19951;SDS011;10137;49.406;19.484;2022-12-17T14:21:36;75.37;;;30.23;;
19951;SDS011;10137;49.406;19.484;2022-12-17T14:24:05;72.17;;;31.57;;
19951;SDS011;10137;49.406;19.484;2022-12-17T14:26:45;96.40;;;40.17;;
19951;SDS011;10137;49.406;19.484;2022-12-17T14:29:14;85.57;;;37.13;;
19951;SDS011;10137;49.406;19.484;2022-12-17T14:31:51;84.00;;;33.27;;
19951;SDS011;10137;49.406;19.484;2022-12-17T14:34:21;86.63;;;34.10;;
19951;SDS011;10137;49.406;19.484;2022-12-17T14:36:52;65.50;;;27.87;;
19951;SDS011;10137;49.406;19.484;2022-12-17T14:39:22;67.27;;;27.80;;
19951;SDS011;10137;49.406;19.484;2022-12-17T14:41:51;63.87;;;27.50;;
19951;SDS011;10137;49.406;19.484;2022-12-17T14:44:39;65.57;;;27.90;;
19951;SDS011;10137;49.406;19.484;2022-12-17T14:47:16;72.60;;;28.87;;
19951;SDS011;10137;49.406;19.484;2022-12-17T14:49:51;70.77;;;29.93;;
19951;SDS011;10137;49.406;19.484;2022-12-17T14:52:32;105.83;;;40.00;;
19951;SDS011;10137;49.406;19.484;2022-12-17T14:58:14;79.97;;;34.80;;
19951;SDS011;10137;49.406;19.484;2022-12-17T15:00:46;91.40;;;38.37;;
19951;SDS011;10137;49.406;19.484;2022-12-17T15:03:17;102.40;;;42.23;;
19951;SDS011;10137;49.406;19.484;2022-12-17T15:05:49;70.93;;;29.07;;
19951;SDS011;10137;49.406;19.484;2022-12-17T15:08:18;69.47;;;28.03;;
19951;SDS011;10137;49.406;19.484;2022-12-17T15:10:46;79.87;;;32.50;;
19951;SDS011;10137;49.406;19.484;2022-12-17T15:13:14;96.17;;;36.07;;
19951;SDS011;10137;49.406;19.484;2022-12-17T15:15:41;133.23;;;50.30;;
19951;SDS011;10137;49.406;19.484;2022-12-17T15:18:08;80.50;;;32.07;;
19951;SDS011;10137;49.406;19.484;2022-12-17T15:20:35;81.10;;;33.83;;
19951;SDS011;10137;49.406;19.484;2022-12-17T15:23:03;90.33;;;36.13;;
19951;SDS011;10137;49.406;19.484;2022-12-17T15:25:30;78.37;;;30.87;;
19951;SDS011;10137;49.406;19.484;2022-12-17T15:27:57;105.00;;;36.93;;
19951;SDS011;10137;49.406;19.484;2022-12-17T15:30:24;83.93;;;32.37;;
19951;SDS011;10137;49.406;19.484;2022-12-17T15:32:51;72.53;;;30.37;;
19951;SDS011;10137;49.406;19.484;2022-12-17T15:35:18;77.17;;;30.97;;
19951;SDS011;10137;49.406;19.484;2022-12-17T15:37:45;81.53;;;34.30;;
19951;SDS011;10137;49.406;19.484;2022-12-17T15:40:14;87.33;;;34.90;;
19951;SDS011;10137;49.406;19.484;2022-12-17T15:42:41;83.80;;;32.83;;
19951;SDS011;10137;49.406;19.484;2022-12-17T15:45:25;78.10;;;31.17;;
19951;SDS011;10137;49.406;19.484;2022-12-17T15:47:52;68.07;;;27.17;;
19951;SDS011;10137;49.406;19.484;2022-12-17T15:50:19;82.70;;;31.37;;
19951;SDS011;10137;49.406;19.484;2022-12-17T15:52:48;75.10;;;29.80;;